createdAt,value
2016-12-01T00:00:14.500Z,84.24
2016-12-01T00:01:23.395Z,84.29
2016-12-01T00:02:32.600Z,83.95
2016-12-01T00:03:41.785Z,83.76
2016-12-01T00:04:50.675Z,84.62
2016-12-01T00:05:59.557Z,84.62
2016-12-01T00:07:08.756Z,84.33
2016-12-01T00:08:17.642Z,84.86
2016-12-01T00:09:26.629Z,85.24
2016-12-01T00:10:35.512Z,84.95
2016-12-01T00:11:44.396Z,85.38
2016-12-01T00:12:53.277Z,85.43
2016-12-01T00:14:01.848Z,85
2016-12-01T00:15:11.188Z,85.28
2016-12-01T00:16:19.789Z,84.33
2016-12-01T00:17:28.358Z,84.62
2016-12-01T00:18:37.244Z,84.33
2016-12-01T00:19:45.812Z,85
2016-12-01T00:20:55.365Z,85.57
2016-12-01T00:22:03.943Z,84.43
2016-12-01T00:23:12.839Z,84.43
2016-12-01T00:24:21.407Z,85.47
2016-12-01T00:25:29.984Z,85.57
2016-12-01T00:26:38.657Z,85.15
2016-12-01T00:27:47.542Z,85.76
2016-12-01T00:28:56.115Z,85.43
2016-12-01T00:30:05.000Z,85.47
2016-12-01T00:31:13.569Z,85.91
2016-12-01T00:32:22.502Z,85.81
2016-12-01T00:33:31.069Z,84.95
2016-12-01T00:34:39.636Z,85.28
2016-12-01T00:35:48.839Z,85.62
2016-12-01T00:36:57.722Z,85.57
2016-12-01T00:38:06.741Z,85.81
2016-12-01T00:39:15.630Z,86.38
2016-12-01T00:40:24.197Z,86.38
2016-12-01T00:41:32.763Z,85.95
2016-12-01T00:42:41.646Z,85.95
2016-12-01T00:43:50.580Z,85.66
2016-12-01T00:44:59.471Z,85.38
2016-12-01T00:46:08.677Z,85.95
2016-12-01T00:47:17.561Z,85.28
2016-12-01T00:48:26.140Z,85
2016-12-01T00:49:35.697Z,85.86
2016-12-01T00:50:44.262Z,84.81
2016-12-01T00:51:53.472Z,85.86
2016-12-01T00:53:02.362Z,85.95
2016-12-01T00:54:11.250Z,86.52
2016-12-01T00:55:20.536Z,86.19
2016-12-01T00:56:29.742Z,85.57
2016-12-01T00:57:38.308Z,85.86
2016-12-01T00:58:47.194Z,85.62
2016-12-01T00:59:55.767Z,85.38
2016-12-01T01:01:04.701Z,85.66
2016-12-01T01:02:14.223Z,85.28
2016-12-01T01:03:22.794Z,85.19
2016-12-01T01:04:31.359Z,85.66
2016-12-01T01:05:39.927Z,85.38
2016-12-01T01:06:48.593Z,85.28
2016-12-01T01:07:57.158Z,86.14
2016-12-01T01:09:06.044Z,85.95
2016-12-01T01:10:15.247Z,85.66
2016-12-01T01:11:24.141Z,85.57
2016-12-01T01:12:33.381Z,85.66
2016-12-01T01:13:41.949Z,85.66
2016-12-01T01:14:50.517Z,85.47
2016-12-01T01:15:59.091Z,85.66
2016-12-01T01:17:07.978Z,85.76
2016-12-01T01:18:17.218Z,85.66
2016-12-01T01:19:25.792Z,85.1
2016-12-01T01:20:35.003Z,84.81
2016-12-01T01:21:44.205Z,84.81
2016-12-01T01:22:53.111Z,85.28
2016-12-01T01:24:01.729Z,85.95
2016-12-01T01:25:10.616Z,85.47
2016-12-01T01:26:19.187Z,85
2016-12-01T01:27:28.073Z,85.19
2016-12-01T01:28:36.634Z,85.28
2016-12-01T01:29:45.600Z,85.57
2016-12-01T01:30:54.489Z,85.28
2016-12-01T01:32:03.056Z,85.38
2016-12-01T01:33:11.655Z,84.91
2016-12-01T01:34:20.234Z,84.81
2016-12-01T01:35:28.853Z,85.66
2016-12-01T01:36:38.057Z,85.47
2016-12-01T01:37:46.624Z,85.57
2016-12-01T01:38:55.193Z,85.57
2016-12-01T01:40:03.785Z,86.05
2016-12-01T01:41:12.699Z,85.47
2016-12-01T01:42:21.582Z,85.47
2016-12-01T01:43:30.471Z,85.66
2016-12-01T01:44:39.038Z,86.14
2016-12-01T01:45:47.610Z,85.52
2016-12-01T01:46:56.596Z,85.76
2016-12-01T01:48:05.161Z,85.66
2016-12-01T01:49:13.729Z,85.47
2016-12-01T01:50:22.296Z,85.57
2016-12-01T01:51:30.861Z,85.76
2016-12-01T01:52:39.480Z,85.66
2016-12-01T01:53:48.047Z,85.9
2016-12-01T01:54:57.569Z,84.95
2016-12-01T01:56:06.135Z,84.66
2016-12-01T01:57:14.700Z,85.14
2016-12-01T01:58:23.366Z,85.33
2016-12-01T01:59:31.934Z,85.33
2016-12-01T02:00:40.499Z,85.61
2016-12-01T02:01:49.710Z,85.04
2016-12-01T02:02:58.594Z,85.99
2016-12-01T02:04:07.927Z,86.05
2016-12-01T02:05:16.817Z,85.04
2016-12-01T02:06:26.343Z,85.14
2016-12-01T02:07:35.235Z,85.8
2016-12-01T02:08:44.117Z,86.05
2016-12-01T02:09:53.404Z,85.61
2016-12-01T02:11:01.972Z,85.99
2016-12-01T02:12:10.857Z,85.14
2016-12-01T02:13:19.751Z,85.99
2016-12-01T02:14:28.636Z,86.47
2016-12-01T02:15:37.824Z,86.18
2016-12-01T02:16:46.719Z,85.9
2016-12-01T02:17:55.924Z,86.28
2016-12-01T02:19:04.491Z,85.99
2016-12-01T02:20:13.381Z,86.09
2016-12-01T02:21:22.000Z,85.52
2016-12-01T02:22:30.572Z,85.9
2016-12-01T02:23:39.455Z,85.8
2016-12-01T02:24:48.344Z,85.71
2016-12-01T02:25:56.916Z,86.18
2016-12-01T02:27:05.935Z,86.38
2016-12-01T02:28:14.511Z,87.23
2016-12-01T02:29:23.080Z,86.85
2016-12-01T02:30:31.967Z,87.04
2016-12-01T02:31:40.539Z,87.04
2016-12-01T02:32:49.156Z,87.13
2016-12-01T02:33:58.043Z,86.94
2016-12-01T02:35:07.246Z,86.47
2016-12-01T02:36:16.134Z,87.04
2016-12-01T02:37:25.022Z,87.04
2016-12-01T02:38:33.642Z,87.13
2016-12-01T02:39:42.210Z,86.85
2016-12-01T02:40:51.101Z,86.47
2016-12-01T02:41:59.667Z,87.23
2016-12-01T02:43:08.237Z,86.47
2016-12-01T02:44:17.472Z,86.47
2016-12-01T02:45:26.041Z,86.47
2016-12-01T02:46:34.608Z,87.04
2016-12-01T02:47:43.494Z,86.38
2016-12-01T02:48:52.058Z,86.85
2016-12-01T02:50:00.976Z,87.23
2016-12-01T02:51:09.571Z,86.94
2016-12-01T02:52:18.173Z,86.85
2016-12-01T02:53:27.743Z,87.23
2016-12-01T02:54:36.325Z,87.04
2016-12-01T02:55:45.242Z,87.13
2016-12-01T02:56:54.132Z,87.13
2016-12-01T02:58:03.047Z,86.85
2016-12-01T02:59:11.634Z,87.23
2016-12-01T03:00:20.543Z,87.42
2016-12-01T03:01:29.193Z,87.04
2016-12-01T03:02:38.098Z,87.23
2016-12-01T03:03:46.987Z,87.42
2016-12-01T03:04:56.195Z,87.04
2016-12-01T03:06:04.781Z,87.23
2016-12-01T03:07:14.372Z,87.52
2016-12-01T03:08:22.964Z,87.13
2016-12-01T03:09:31.531Z,86.99
2016-12-01T03:10:40.439Z,87.27
2016-12-01T03:11:49.351Z,87.18
2016-12-01T03:12:58.346Z,87.13
2016-12-01T03:14:06.912Z,86.22
2016-12-01T03:15:15.500Z,87.08
2016-12-01T03:16:24.073Z,86.61
2016-12-01T03:17:32.656Z,87.18
2016-12-01T03:18:41.927Z,86.85
2016-12-01T03:19:50.527Z,87.18
2016-12-01T03:20:59.419Z,87.32
2016-12-01T03:22:08.004Z,86.7
2016-12-01T03:23:16.939Z,87.08
2016-12-01T03:24:26.189Z,87.08
2016-12-01T03:25:34.787Z,87.18
2016-12-01T03:26:43.380Z,87.08
2016-12-01T03:27:51.967Z,87.08
2016-12-01T03:29:00.867Z,86.99
2016-12-01T03:30:09.558Z,86.22
2016-12-01T03:31:18.784Z,86.51
2016-12-01T03:32:27.371Z,87.18
2016-12-01T03:33:36.283Z,86.22
2016-12-01T03:34:44.881Z,87.27
2016-12-01T03:35:54.457Z,86.57
2016-12-01T03:37:03.362Z,86.7
2016-12-01T03:38:11.949Z,87.04
2016-12-01T03:39:21.167Z,86.7
2016-12-01T03:40:29.766Z,87.08
2016-12-01T03:41:39.278Z,86.99
2016-12-01T03:42:47.858Z,86.13
2016-12-01T03:43:56.762Z,86.51
2016-12-01T03:45:05.391Z,87.18
2016-12-01T03:46:14.616Z,87.32
2016-12-01T03:47:23.546Z,87.99
2016-12-01T03:48:32.147Z,88.09
2016-12-01T03:49:40.735Z,87.04
2016-12-01T03:50:49.644Z,87.08
2016-12-01T03:51:58.534Z,87.13
2016-12-01T03:53:07.890Z,87.04
2016-12-01T03:54:16.800Z,87.65
2016-12-01T03:55:25.376Z,86.99
2016-12-01T03:56:34.287Z,87.75
2016-12-01T03:57:42.874Z,87.23
2016-12-01T03:58:52.084Z,88.13
2016-12-01T04:00:01.303Z,87.85
2016-12-01T04:01:10.217Z,87.46
2016-12-01T04:02:19.120Z,88.04
2016-12-01T04:03:27.705Z,87.46
2016-12-01T04:04:36.588Z,88.13
2016-12-01T04:05:45.812Z,87.75
2016-12-01T04:06:54.388Z,87.37
2016-12-01T04:08:03.630Z,87.18
2016-12-01T04:09:12.225Z,87.27
2016-12-01T04:10:20.848Z,87.37
2016-12-01T04:11:29.743Z,87.37
2016-12-01T04:12:38.320Z,87.65
2016-12-01T04:13:47.218Z,86.99
2016-12-01T04:14:56.762Z,87.18
2016-12-01T04:16:05.453Z,86.99
2016-12-01T04:17:14.360Z,87.04
2016-12-01T04:18:23.255Z,87.08
2016-12-01T04:19:31.843Z,86.94
2016-12-01T04:20:41.066Z,86.8
2016-12-01T04:21:49.709Z,86.22
2016-12-01T04:22:58.624Z,86.51
2016-12-01T04:24:07.536Z,87.13
2016-12-01T04:25:16.440Z,86.94
2016-12-01T04:26:25.007Z,87.23
2016-12-01T04:27:33.641Z,87.04
2016-12-01T04:28:42.571Z,86.9
2016-12-01T04:29:51.165Z,86.51
2016-12-01T04:30:59.734Z,86.7
2016-12-01T04:32:08.325Z,86.7
2016-12-01T04:33:17.257Z,86.18
2016-12-01T04:34:25.828Z,86.57
2016-12-01T04:35:34.451Z,86.51
2016-12-01T04:36:43.395Z,85.9
2016-12-01T04:37:52.623Z,86.04
2016-12-01T04:39:01.557Z,85.94
2016-12-01T04:40:10.454Z,86.42
2016-12-01T04:41:19.359Z,86.22
2016-12-01T04:42:28.274Z,85.71
2016-12-01T04:43:36.856Z,86.04
2016-12-01T04:44:45.540Z,86.04
2016-12-01T04:45:54.120Z,86.04
2016-12-01T04:47:02.687Z,85.94
2016-12-01T04:48:11.268Z,85.85
2016-12-01T04:49:20.169Z,85.94
2016-12-01T04:50:29.432Z,86.9
2016-12-01T04:51:38.016Z,86.28
2016-12-01T04:52:46.598Z,86.38
2016-12-01T04:53:55.201Z,86.76
2016-12-01T04:55:03.787Z,86.38
2016-12-01T04:56:12.747Z,86.18
2016-12-01T04:57:21.976Z,86.28
2016-12-01T04:58:30.557Z,85.99
2016-12-01T04:59:39.447Z,85.8
2016-12-01T05:00:48.338Z,85.52
2016-12-01T05:01:57.682Z,86.22
2016-12-01T05:03:06.619Z,86.04
2016-12-01T05:04:15.511Z,86.47
2016-12-01T05:05:24.103Z,85.9
2016-12-01T05:06:32.694Z,85.99
2016-12-01T05:07:41.651Z,85.52
2016-12-01T05:08:50.224Z,85.75
2016-12-01T05:09:58.802Z,85.75
2016-12-01T05:11:07.387Z,85.9
2016-12-01T05:12:15.975Z,85.8
2016-12-01T05:13:24.931Z,85.66
2016-12-01T05:14:33.519Z,85.99
2016-12-01T05:15:42.749Z,85.56
2016-12-01T05:16:52.599Z,85.75
2016-12-01T05:18:02.147Z,85.52
2016-12-01T05:19:11.098Z,85.85
2016-12-01T05:20:19.996Z,85.52
2016-12-01T05:21:28.574Z,85.47
2016-12-01T05:22:37.165Z,86.04
2016-12-01T05:23:45.792Z,85.85
2016-12-01T05:24:54.997Z,86.13
2016-12-01T05:26:03.909Z,85.94
2016-12-01T05:27:12.494Z,86.04
2016-12-01T05:28:21.403Z,85.56
2016-12-01T05:29:29.978Z,85.47
2016-12-01T05:30:39.004Z,85.61
2016-12-01T05:31:47.593Z,85.75
2016-12-01T05:32:56.175Z,85.94
2016-12-01T05:34:04.772Z,86.04
2016-12-01T05:35:13.342Z,85.42
2016-12-01T05:36:22.542Z,85.37
2016-12-01T05:37:31.116Z,85.37
2016-12-01T05:38:40.009Z,85.37
2016-12-01T05:39:48.582Z,85.56
2016-12-01T05:40:57.172Z,85.37
2016-12-01T05:42:05.797Z,84.89
2016-12-01T05:43:14.379Z,84.89
2016-12-01T05:44:23.278Z,85.08
2016-12-01T05:45:32.187Z,85.28
2016-12-01T05:46:41.075Z,85.66
2016-12-01T05:47:50.023Z,84.99
2016-12-01T05:48:58.927Z,84.61
2016-12-01T05:50:07.514Z,84.04
2016-12-01T05:51:16.399Z,83.75
2016-12-01T05:52:25.296Z,84.04
2016-12-01T05:53:34.236Z,84.99
2016-12-01T05:54:43.146Z,85.37
2016-12-01T05:55:51.725Z,84.99
2016-12-01T05:57:00.935Z,85.14
2016-12-01T05:58:09.510Z,84.42
2016-12-01T05:59:18.458Z,84.33
2016-12-01T06:00:27.357Z,85.18
2016-12-01T06:01:36.566Z,84.52
2016-12-01T06:02:45.459Z,84.61
2016-12-01T06:03:54.378Z,85.18
2016-12-01T06:05:03.011Z,84.8
2016-12-01T06:06:12.234Z,85.08
2016-12-01T06:07:21.148Z,84.61
2016-12-01T06:08:30.063Z,84.89
2016-12-01T06:09:38.967Z,85.08
2016-12-01T06:10:47.596Z,85.18
2016-12-01T06:11:56.247Z,85.47
2016-12-01T06:13:05.162Z,84.85
2016-12-01T06:14:14.073Z,85.47
2016-12-01T06:15:22.655Z,85.66
2016-12-01T06:16:31.661Z,85.56
2016-12-01T06:17:40.252Z,85.18
2016-12-01T06:18:48.832Z,85.94
2016-12-01T06:19:57.734Z,85.75
2016-12-01T06:21:06.645Z,85.85
2016-12-01T06:22:15.279Z,85.18
2016-12-01T06:23:24.490Z,85.75
2016-12-01T06:24:33.404Z,85.56
2016-12-01T06:25:41.998Z,85.37
2016-12-01T06:26:50.905Z,85.75
2016-12-01T06:27:59.580Z,85.08
2016-12-01T06:29:08.166Z,84.89
2016-12-01T06:30:16.761Z,84.99
2016-12-01T06:31:25.670Z,84.52
2016-12-01T06:32:34.907Z,84.42
2016-12-01T06:33:43.789Z,85.56
2016-12-01T06:34:52.702Z,85.47
2016-12-01T06:36:01.924Z,84.89
2016-12-01T06:37:10.508Z,85.37
2016-12-01T06:38:19.412Z,85.18
2016-12-01T06:39:28.693Z,85.47
2016-12-01T06:40:37.599Z,85.08
2016-12-01T06:41:46.181Z,85.37
2016-12-01T06:42:54.780Z,84.99
2016-12-01T06:44:04.036Z,84.42
2016-12-01T06:45:13.703Z,84.61
2016-12-01T06:46:22.305Z,84.7
2016-12-01T06:47:31.529Z,83.75
2016-12-01T06:48:40.750Z,84.04
2016-12-01T06:49:49.321Z,84.33
2016-12-01T06:50:58.605Z,84.61
2016-12-01T06:52:07.830Z,83.65
2016-12-01T06:53:16.410Z,84.42
2016-12-01T06:54:25.334Z,83.85
2016-12-01T06:55:34.234Z,83.94
2016-12-01T06:56:43.492Z,83.75
2016-12-01T06:57:52.398Z,83.56
2016-12-01T06:59:01.315Z,83.65
2016-12-01T07:00:10.232Z,83.94
2016-12-01T07:01:19.141Z,83.75
2016-12-01T07:02:28.674Z,83.56
2016-12-01T07:03:37.589Z,83.75
2016-12-01T07:04:47.128Z,84.33
2016-12-01T07:05:56.040Z,84.33
2016-12-01T07:07:04.629Z,84.52
2016-12-01T07:08:13.588Z,84.42
2016-12-01T07:09:22.501Z,84.42
2016-12-01T07:10:31.103Z,84.33
2016-12-01T07:11:39.676Z,84.52
2016-12-01T07:12:48.592Z,84.61
2016-12-01T07:13:58.431Z,83.85
2016-12-01T07:15:07.014Z,83.75
2016-12-01T07:16:15.616Z,83.75
2016-12-01T07:17:24.545Z,83.28
2016-12-01T07:18:33.462Z,83.28
2016-12-01T07:19:42.138Z,82.51
2016-12-01T07:20:50.725Z,82.14
2016-12-01T07:21:59.636Z,82.51
2016-12-01T07:23:08.867Z,83.18
2016-12-01T07:24:17.785Z,82.51
2016-12-01T07:25:27.037Z,82.23
2016-12-01T07:26:35.937Z,81.41
2016-12-01T07:27:44.852Z,81.7
2016-12-01T07:28:53.766Z,80.61
2016-12-01T07:30:02.991Z,81.03
2016-12-01T07:31:11.934Z,80.33
2016-12-01T07:32:20.524Z,80.46
2016-12-01T07:33:29.754Z,80.75
2016-12-01T07:34:38.348Z,81.32
2016-12-01T07:35:47.247Z,81.18
2016-12-01T07:36:56.450Z,81.56
2016-12-01T07:38:05.671Z,81.76
2016-12-01T07:39:15.209Z,81.09
2016-12-01T07:40:24.108Z,80.71
2016-12-01T07:41:33.022Z,81.09
2016-12-01T07:42:41.961Z,81.56
2016-12-01T07:43:50.550Z,81.47
2016-12-01T07:44:59.445Z,81.37
2016-12-01T07:46:08.338Z,81.28
2016-12-01T07:47:17.547Z,80.99
2016-12-01T07:48:26.173Z,80.42
2016-12-01T07:49:35.396Z,80.33
2016-12-01T07:50:44.001Z,80.9
2016-12-01T07:51:52.918Z,80.8
2016-12-01T07:53:01.510Z,80.9
2016-12-01T07:54:10.445Z,80.61
2016-12-01T07:55:19.354Z,80.42
2016-12-01T07:56:28.271Z,80.18
2016-12-01T07:57:37.182Z,79.89
2016-12-01T07:58:45.774Z,80.18
2016-12-01T07:59:55.053Z,80.18
2016-12-01T08:01:03.648Z,80.18
2016-12-01T08:02:12.541Z,79.6
2016-12-01T08:03:21.155Z,79.7
2016-12-01T08:04:30.077Z,80.18
2016-12-01T08:05:39.340Z,79.51
2016-12-01T08:06:48.251Z,80.75
2016-12-01T08:07:57.162Z,80.08
2016-12-01T08:09:06.381Z,80.65
2016-12-01T08:10:14.970Z,79.85
2016-12-01T08:11:24.574Z,78.94
2016-12-01T08:12:33.807Z,78.85
2016-12-01T08:13:42.707Z,79.22
2016-12-01T08:14:51.615Z,80.08
2016-12-01T08:16:00.519Z,80.08
2016-12-01T08:17:10.128Z,80.18
2016-12-01T08:18:18.732Z,79.8
2016-12-01T08:19:28.282Z,79.7
2016-12-01T08:20:37.197Z,80.36
2016-12-01T08:21:45.798Z,80.08
2016-12-01T08:22:54.422Z,80.36
2016-12-01T08:24:03.006Z,80.08
2016-12-01T08:25:11.586Z,80.08
2016-12-01T08:26:20.503Z,80.27
2016-12-01T08:27:29.102Z,79.8
2016-12-01T08:28:38.088Z,79.51
2016-12-01T08:29:47.327Z,79.41
2016-12-01T08:30:56.226Z,79.41
2016-12-01T08:32:05.131Z,78.46
2016-12-01T08:33:13.707Z,78.65
2016-12-01T08:34:23.033Z,78.56
2016-12-01T08:35:31.618Z,78.37
2016-12-01T08:36:40.195Z,78.17
2016-12-01T08:37:48.792Z,79.03
2016-12-01T08:38:57.388Z,79.6
2016-12-01T08:40:06.375Z,79.99
2016-12-01T08:41:15.282Z,78.94
2016-12-01T08:42:23.858Z,79.13
2016-12-01T08:43:32.769Z,79.03
2016-12-01T08:44:41.988Z,78.85
2016-12-01T08:45:50.947Z,79.13
2016-12-01T08:47:00.171Z,79.32
2016-12-01T08:48:09.098Z,80.27
2016-12-01T08:49:17.699Z,80.65
2016-12-01T08:50:26.610Z,80.75
2016-12-01T08:51:35.882Z,80.36
2016-12-01T08:52:44.803Z,79.99
2016-12-01T08:53:53.756Z,80.18
2016-12-01T08:55:03.051Z,79.7
2016-12-01T08:56:11.959Z,79.41
2016-12-01T08:57:20.897Z,79.22
2016-12-01T08:58:29.815Z,79.7
2016-12-01T08:59:38.395Z,80.08
2016-12-01T09:00:47.316Z,80.18
2016-12-01T09:01:56.559Z,78.94
2016-12-01T09:03:05.929Z,80.08
2016-12-01T09:04:14.888Z,80.65
2016-12-01T09:05:23.485Z,80.75
2016-12-01T09:06:32.084Z,80.36
2016-12-01T09:07:41.336Z,80.55
2016-12-01T09:08:49.984Z,80.84
2016-12-01T09:09:58.887Z,79.89
2016-12-01T09:11:07.802Z,80.18
2016-12-01T09:12:16.372Z,80.46
2016-12-01T09:13:25.276Z,80.18
2016-12-01T09:14:34.532Z,79.99
2016-12-01T09:15:43.436Z,79.03
2016-12-01T09:16:52.333Z,79.03
2016-12-01T09:18:00.918Z,79.03
2016-12-01T09:19:09.825Z,79.22
2016-12-01T09:20:18.766Z,79.03
2016-12-01T09:21:27.360Z,79.03
2016-12-01T09:22:36.264Z,79.22
2016-12-01T09:23:44.862Z,78.37
2016-12-01T09:24:53.786Z,78.5
2016-12-01T09:26:02.425Z,79.22
2016-12-01T09:27:10.999Z,78.88
2016-12-01T09:28:19.610Z,78.88
2016-12-01T09:29:28.518Z,79.36
2016-12-01T09:30:37.415Z,78.85
2016-12-01T09:31:46.060Z,78.75
2016-12-01T09:32:54.644Z,77.89
2016-12-01T09:34:03.541Z,78.41
2016-12-01T09:35:12.137Z,78.22
2016-12-01T09:36:21.086Z,77.51
2016-12-01T09:37:30.018Z,77.07
2016-12-01T09:38:38.592Z,76.79
2016-12-01T09:39:47.180Z,76.79
2016-12-01T09:40:55.773Z,76.31
2016-12-01T09:42:04.398Z,76.12
2016-12-01T09:43:13.018Z,76.12
2016-12-01T09:44:21.928Z,76.59
2016-12-01T09:45:30.845Z,76.84
2016-12-01T09:46:39.438Z,76.84
2016-12-01T09:47:48.674Z,77.36
2016-12-01T09:48:57.626Z,77.61
2016-12-01T09:50:06.218Z,77.64
2016-12-01T09:51:15.129Z,77.8
2016-12-01T09:52:24.342Z,77.8
2016-12-01T09:53:32.931Z,78.46
2016-12-01T09:54:42.575Z,78.75
2016-12-01T09:55:51.487Z,78.56
2016-12-01T09:57:01.034Z,78.46
2016-12-01T09:58:09.627Z,78.27
2016-12-01T09:59:18.524Z,77.61
2016-12-01T10:00:27.161Z,77.8
2016-12-01T10:01:36.395Z,77.64
2016-12-01T10:02:45.311Z,77.8
2016-12-01T10:03:54.529Z,77.7
2016-12-01T10:05:03.115Z,77.13
2016-12-01T10:06:12.368Z,76.56
2016-12-01T10:07:21.572Z,77.07
2016-12-01T10:08:30.487Z,76.75
2016-12-01T10:09:39.708Z,76.18
2016-12-01T10:10:48.604Z,75.84
2016-12-01T10:11:57.567Z,75.74
2016-12-01T10:13:06.158Z,75.51
2016-12-01T10:14:15.056Z,74.88
2016-12-01T10:15:24.295Z,74.88
2016-12-01T10:16:32.936Z,75.16
2016-12-01T10:17:41.636Z,75.26
2016-12-01T10:18:51.204Z,75.51
2016-12-01T10:20:00.783Z,74.69
2016-12-01T10:21:09.695Z,74.79
2016-12-01T10:22:18.600Z,74.5
2016-12-01T10:23:27.540Z,74.6
2016-12-01T10:24:36.777Z,74.5
2016-12-01T10:25:45.353Z,73.74
2016-12-01T10:26:54.248Z,74.21
2016-12-01T10:28:02.850Z,74.02
2016-12-01T10:29:12.104Z,74.12
2016-12-01T10:30:21.016Z,73.65
2016-12-01T10:31:29.594Z,73.74
2016-12-01T10:32:38.504Z,73.83
2016-12-01T10:33:47.092Z,74.12
2016-12-01T10:34:55.775Z,73.21
2016-12-01T10:36:04.680Z,74.21
2016-12-01T10:37:13.572Z,73.65
2016-12-01T10:38:22.162Z,73.07
2016-12-01T10:39:31.051Z,73.07
2016-12-01T10:40:39.748Z,73.07
2016-12-01T10:41:48.673Z,72.78
2016-12-01T10:42:57.576Z,71.93
2016-12-01T10:44:06.145Z,72.72
2016-12-01T10:45:14.742Z,71.96
2016-12-01T10:46:24.010Z,71.87
2016-12-01T10:47:32.599Z,71.87
2016-12-01T10:48:41.177Z,72.16
2016-12-01T10:49:50.082Z,72.6
2016-12-01T10:50:58.665Z,72.97
2016-12-01T10:52:07.639Z,73.07
2016-12-01T10:53:16.551Z,72.69
2016-12-01T10:54:25.151Z,73.36
2016-12-01T10:55:34.056Z,74.31
2016-12-01T10:56:42.647Z,74.69
2016-12-01T10:57:51.336Z,74.5
2016-12-01T10:58:59.921Z,75.36
2016-12-01T11:00:08.823Z,75.74
2016-12-01T11:01:17.727Z,75.26
2016-12-01T11:02:26.319Z,75.26
2016-12-01T11:03:35.308Z,75.93
2016-12-01T11:04:44.215Z,76.4
2016-12-01T11:05:52.806Z,76.31
2016-12-01T11:07:01.398Z,76.12
2016-12-01T11:08:09.988Z,76.4
2016-12-01T11:09:18.882Z,77.64
2016-12-01T11:10:27.504Z,77.45
2016-12-01T11:11:37.058Z,77.17
2016-12-01T11:12:45.961Z,77.36
2016-12-01T11:13:54.561Z,77.07
2016-12-01T11:15:04.187Z,77.07
2016-12-01T11:16:12.785Z,77.26
2016-12-01T11:17:21.690Z,77.93
2016-12-01T11:18:30.912Z,77.45
2016-12-01T11:19:40.139Z,76.88
2016-12-01T11:20:49.460Z,78.22
2016-12-01T11:21:58.035Z,78.41
2016-12-01T11:23:06.628Z,77.64
2016-12-01T11:24:15.542Z,78.41
2016-12-01T11:25:24.135Z,78.31
2016-12-01T11:26:33.109Z,78.88
2016-12-01T11:27:41.704Z,78.41
2016-12-01T11:28:50.930Z,79.21
2016-12-01T11:29:59.513Z,79.74
2016-12-01T11:31:08.402Z,79.36
2016-12-01T11:32:17.622Z,79.74
2016-12-01T11:33:26.211Z,78.88
2016-12-01T11:34:34.812Z,78.92
2016-12-01T11:35:43.718Z,79.07
2016-12-01T11:36:52.621Z,79.55
2016-12-01T11:38:01.572Z,78.78
2016-12-01T11:39:10.155Z,78.98
2016-12-01T11:40:19.044Z,79.27
2016-12-01T11:41:28.273Z,79.27
2016-12-01T11:42:37.177Z,78.41
2016-12-01T11:43:46.130Z,78.59
2016-12-01T11:44:55.058Z,78.03
2016-12-01T11:46:03.660Z,79.07
2016-12-01T11:47:12.889Z,79.07
2016-12-01T11:48:21.481Z,78.59
2016-12-01T11:49:30.427Z,78.78
2016-12-01T11:50:39.349Z,78.98
2016-12-01T11:51:48.590Z,79.36
2016-12-01T11:52:57.517Z,79.93
2016-12-01T11:54:06.732Z,80.41
2016-12-01T11:55:15.784Z,80.02
2016-12-01T11:56:24.692Z,79.93
2016-12-01T11:57:33.919Z,80.69
2016-12-01T11:58:42.527Z,81.74
2016-12-01T11:59:51.435Z,82.5
2016-12-01T12:01:00.125Z,83.41
2016-12-01T12:02:09.013Z,83.93
2016-12-01T12:03:17.595Z,84.75
2016-12-01T12:04:26.182Z,85.22
2016-12-01T12:05:35.074Z,85.99
2016-12-01T12:06:43.961Z,85.8
2016-12-01T12:07:52.541Z,86.08
2016-12-01T12:09:01.146Z,86.46
2016-12-01T12:10:10.388Z,86.75
2016-12-01T12:11:19.294Z,87.6
2016-12-01T12:12:28.716Z,87.13
2016-12-01T12:13:37.622Z,87.98
2016-12-01T12:14:46.216Z,87.6
2016-12-01T12:15:54.816Z,88.18
2016-12-01T12:17:03.402Z,87.7
2016-12-01T12:18:12.274Z,87.51
2016-12-01T12:19:21.503Z,87.13
2016-12-01T12:20:30.413Z,87.6
2016-12-01T12:21:39.330Z,87.13
2016-12-01T12:22:48.251Z,87.03
2016-12-01T12:23:57.144Z,86.75
2016-12-01T12:25:06.364Z,86.46
2016-12-01T12:26:15.308Z,86.27
2016-12-01T12:27:23.880Z,85.8
2016-12-01T12:28:32.775Z,86.27
2016-12-01T12:29:42.020Z,86.27
2016-12-01T12:30:50.923Z,85.41
2016-12-01T12:31:59.509Z,85.27
2016-12-01T12:33:08.109Z,84.6
2016-12-01T12:34:16.695Z,84.03
2016-12-01T12:35:25.428Z,84.22
2016-12-01T12:36:34.659Z,84.5
2016-12-01T12:37:43.561Z,84.12
2016-12-01T12:38:52.476Z,84.6
2016-12-01T12:40:01.397Z,83.74
2016-12-01T12:41:10.382Z,83.93
2016-12-01T12:42:19.291Z,83.45
2016-12-01T12:43:27.889Z,82.5
2016-12-01T12:44:37.122Z,81.93
2016-12-01T12:45:46.352Z,82.31
2016-12-01T12:46:55.323Z,81.93
2016-12-01T12:48:03.915Z,81.93
2016-12-01T12:49:12.500Z,80.88
2016-12-01T12:50:21.727Z,80.41
2016-12-01T12:51:30.966Z,80.5
2016-12-01T12:52:39.651Z,80.6
2016-12-01T12:53:48.235Z,81.26
2016-12-01T12:54:57.141Z,81.46
2016-12-01T12:56:06.049Z,82.79
2016-12-01T12:57:14.980Z,83.26
2016-12-01T12:58:24.255Z,83.65
2016-12-01T12:59:32.853Z,83.93
2016-12-01T13:00:41.773Z,84.03
2016-12-01T13:01:50.386Z,83.74
2016-12-01T13:02:59.333Z,82.98
2016-12-01T13:04:08.346Z,82.21
2016-12-01T13:05:16.934Z,83.45
2016-12-01T13:06:25.842Z,83.8
2016-12-01T13:07:34.437Z,83.51
2016-12-01T13:08:43.339Z,83.55
2016-12-01T13:09:52.282Z,83.17
2016-12-01T13:11:00.877Z,83.45
2016-12-01T13:12:09.797Z,83.26
2016-12-01T13:13:19.015Z,82.98
2016-12-01T13:14:27.614Z,84.31
2016-12-01T13:15:36.299Z,84.65
2016-12-01T13:16:45.213Z,84.41
2016-12-01T13:17:53.804Z,85.99
2016-12-01T13:19:02.697Z,86.55
2016-12-01T13:20:11.285Z,87.79
2016-12-01T13:21:19.920Z,87.79
2016-12-01T13:22:28.839Z,87.89
2016-12-01T13:23:37.755Z,87.79
2016-12-01T13:24:46.346Z,88.08
2016-12-01T13:25:55.283Z,88.08
2016-12-01T13:27:04.982Z,88.08
2016-12-01T13:28:13.891Z,88.37
2016-12-01T13:29:22.818Z,87.13
2016-12-01T13:30:31.405Z,87.32
2016-12-01T13:31:40.004Z,86.36
2016-12-01T13:32:49.926Z,86.27
2016-12-01T13:33:58.836Z,86.18
2016-12-01T13:35:07.411Z,86.55
2016-12-01T13:36:16.009Z,85.7
2016-12-01T13:37:24.614Z,86.08
2016-12-01T13:38:33.657Z,85.41
2016-12-01T13:39:42.559Z,85.89
2016-12-01T13:40:51.165Z,84.94
2016-12-01T13:41:59.762Z,85.74
2016-12-01T13:43:08.655Z,85.17
2016-12-01T13:44:17.640Z,84.69
2016-12-01T13:45:26.549Z,84.75
2016-12-01T13:46:35.764Z,84.56
2016-12-01T13:47:44.332Z,84.6
2016-12-01T13:48:53.250Z,84.46
2016-12-01T13:50:01.925Z,84.88
2016-12-01T13:51:10.843Z,84.65
2016-12-01T13:52:19.756Z,83.7
2016-12-01T13:53:28.986Z,83.84
2016-12-01T13:54:37.578Z,82.69
2016-12-01T13:55:46.527Z,81.84
2016-12-01T13:56:56.061Z,81.55
2016-12-01T13:58:04.956Z,81.07
2016-12-01T13:59:13.532Z,80.69
2016-12-01T14:00:22.119Z,80.98
2016-12-01T14:01:31.386Z,81.07
2016-12-01T14:02:40.627Z,81.07
2016-12-01T14:03:49.869Z,80.69
2016-12-01T14:04:58.466Z,80.98
2016-12-01T14:06:07.409Z,81.46
2016-12-01T14:07:16.434Z,82.12
2016-12-01T14:08:25.664Z,83.65
2016-12-01T14:09:34.244Z,84.5
2016-12-01T14:10:43.464Z,85.46
2016-12-01T14:11:52.365Z,85.8
2016-12-01T14:13:01.048Z,86.08
2016-12-01T14:14:09.629Z,86.08
2016-12-01T14:15:18.537Z,87.03
2016-12-01T14:16:27.138Z,87.23
2016-12-01T14:17:36.361Z,88.46
2016-12-01T14:18:45.625Z,88.08
2016-12-01T14:19:54.543Z,87.03
2016-12-01T14:21:03.446Z,87.41
2016-12-01T14:22:12.040Z,88.08
2016-12-01T14:23:20.961Z,88.27
2016-12-01T14:24:29.644Z,89.03
2016-12-01T14:25:38.219Z,88.65
2016-12-01T14:26:47.123Z,88.56
2016-12-01T14:27:56.350Z,89.03
2016-12-01T14:29:04.937Z,88.56
2016-12-01T14:30:13.980Z,89.03
2016-12-01T14:31:22.903Z,88.65
2016-12-01T14:32:31.792Z,88.84
2016-12-01T14:33:40.386Z,88.79
2016-12-01T14:34:49.297Z,88.84
2016-12-01T14:35:58.279Z,88.79
2016-12-01T14:37:07.490Z,88.75
2016-12-01T14:38:16.091Z,88.6
2016-12-01T14:39:24.988Z,89.27
2016-12-01T14:40:33.596Z,89.65
2016-12-01T14:41:42.233Z,90.8
2016-12-01T14:42:51.466Z,90.7
2016-12-01T14:44:00.400Z,92.51
2016-12-01T14:45:09.632Z,92.32
2016-12-01T14:46:19.508Z,93.18
2016-12-01T14:47:28.772Z,93.84
2016-12-01T14:48:37.351Z,93.08
2016-12-01T14:49:46.259Z,93.84